Time;durP1;ratioP1;P1;durP2;ratioP2;P2;SDS_P1;SDS_P2;PMS_P1;PMS_P2;Temp;Humidity;BMP_temperature;BMP_pressure;BME280_temperature;BME280_humidity;BME280_pressure;Samples;Min_cycle;Max_cycle;Signal;HPM_P1;HPM_P2
2022/11/04 00:02:07;;;;;;;6.80;3.70;;;;;;;11.28;87.85;99366.64;104146;1287;71101;-76
2022/11/04 00:04:34;;;;;;;6.70;3.60;;;;;;;11.31;87.71;99364.10;104232;1294;61765;-76
2022/11/04 00:07:00;;;;;;;6.50;4.00;;;;;;;11.34;87.98;99355.42;103515;1304;59169;-78
2022/11/04 00:09:29;;;;;;;8.70;4.00;;;;;;;11.35;87.81;99359.71;104831;1295;60449;-76
2022/11/04 00:14:42;;;;;;;7.60;3.80;;;;;;;11.31;88.00;99354.84;104090;1292;73312;-76
2022/11/04 00:17:18;;;;;;;5.90;3.30;;;;;;;11.28;88.27;99351.86;105089;1294;61855;-77
2022/11/04 00:33:51;;;;;;;7.00;3.10;;;;;;;11.47;87.06;99350.90;104818;1289;59665;-77
2022/11/04 00:36:18;;;;;;;5.50;2.90;;;;;;;11.52;86.93;99350.50;104519;1294;73651;-75
2022/11/04 00:38:45;;;;;;;5.60;3.00;;;;;;;11.56;86.62;99349.26;104273;1302;70813;-76
2022/11/04 00:41:26;;;;;;;4.50;3.00;;;;;;;11.58;86.71;99346.91;104221;1300;74132;-77
2022/11/04 00:43:59;;;;;;;5.40;3.00;;;;;;;11.61;86.91;99348.69;104066;1297;60499;-75
2022/11/04 00:46:27;;;;;;;5.10;3.00;;;;;;;11.63;86.89;99345.56;104467;1292;60392;-75
2022/11/04 00:48:54;;;;;;;4.90;2.70;;;;;;;11.65;86.95;99344.73;104059;1300;71860;-75
2022/11/04 00:51:21;;;;;;;5.80;3.30;;;;;;;11.66;87.05;99347.67;104316;1294;71023;-76
2022/11/04 00:53:48;;;;;;;4.20;2.90;;;;;;;11.67;87.09;99349.78;104717;1295;72185;-76
2022/11/04 00:56:15;;;;;;;5.40;3.20;;;;;;;11.68;87.04;99349.28;103805;1287;60684;-77
2022/11/04 00:58:42;;;;;;;5.20;3.10;;;;;;;11.69;87.25;99348.62;104207;1295;60492;-76
2022/11/04 01:01:17;;;;;;;6.20;3.60;;;;;;;11.70;87.22;99344.90;103728;1299;72927;-76
2022/11/04 01:03:45;;;;;;;5.10;3.30;;;;;;;11.71;87.12;99341.76;104447;1295;69735;-76
2022/11/04 01:06:12;;;;;;;4.70;3.10;;;;;;;11.72;87.10;99344.07;103806;1300;72174;-76
2022/11/04 01:08:39;;;;;;;4.80;3.10;;;;;;;11.73;87.10;99344.80;104854;1298;61158;-76
2022/11/04 01:11:08;;;;;;;6.00;3.50;;;;;;;11.75;87.14;99342.41;104001;1294;60317;-77
2022/11/04 01:13:35;;;;;;;6.10;3.70;;;;;;;11.78;87.02;99350.36;104455;1288;75253;-78
2022/11/04 01:16:04;;;;;;;6.30;3.60;;;;;;;11.78;86.99;99354.17;104111;1300;72250;-77
2022/11/04 01:18:31;;;;;;;4.80;3.00;;;;;;;11.80;86.87;99359.27;104054;1299;71588;-77
2022/11/04 01:21:03;;;;;;;7.80;3.60;;;;;;;11.81;87.05;99359.54;104144;1302;61133;-78
2022/11/04 01:23:30;;;;;;;6.10;3.10;;;;;;;11.81;86.83;99364.64;104771;1295;59016;-77
2022/11/04 01:25:56;;;;;;;5.10;3.20;;;;;;;11.81;87.06;99367.30;104208;1297;60397;-77
2022/11/04 01:28:22;;;;;;;5.50;3.20;;;;;;;11.80;87.25;99376.42;104625;1284;59827;-76
2022/11/04 01:30:49;;;;;;;6.20;3.40;;;;;;;11.76;87.90;99386.76;104239;1295;72839;-76
2022/11/04 01:33:16;;;;;;;10.80;3.70;;;;;;;11.69;89.12;99391.17;104668;1294;60486;-77
2022/11/04 01:35:43;;;;;;;7.70;3.70;;;;;;;11.59;90.33;99395.32;103991;1291;60337;-77
2022/11/04 01:38:09;;;;;;;5.10;3.90;;;;;;;11.50;90.82;99392.84;103916;1301;59237;-76
2022/11/04 01:40:38;;;;;;;11.80;4.10;;;;;;;11.42;91.09;99391.08;104360;1292;69255;-77
2022/11/04 01:43:13;;;;;;;8.70;4.10;;;;;;;11.35;91.85;99389.60;103751;1295;72882;-78
2022/11/04 01:45:47;;;;;;;7.50;4.00;;;;;;;11.27;92.85;99385.11;104304;1288;60830;-77
2022/11/04 01:48:30;;;;;;;6.70;3.90;;;;;;;11.19;93.75;99392.13;104208;1292;60471;-77
2022/11/04 01:50:58;;;;;;;6.40;4.00;;;;;;;11.13;94.44;99393.67;104399;1294;75087;-78
2022/11/04 01:53:30;;;;;;;7.90;4.30;;;;;;;11.09;94.94;99405.23;104466;1292;68596;-77
2022/11/04 01:56:00;;;;;;;7.60;4.30;;;;;;;11.07;95.23;99402.55;104262;1291;76123;-77
2022/11/04 01:58:33;;;;;;;9.20;4.80;;;;;;;11.05;95.34;99400.88;104636;1300;61419;-77
2022/11/04 02:01:00;;;;;;;6.60;4.40;;;;;;;11.04;95.69;99406.84;104054;1294;60133;-78
2022/11/04 02:03:33;;;;;;;6.10;3.90;;;;;;;11.02;96.22;99420.34;104321;1294;73846;-77
2022/11/04 02:06:01;;;;;;;6.80;4.00;;;;;;;11.00;96.69;99420.58;104599;1294;69699;-77
2022/11/04 02:08:28;;;;;;;7.60;4.00;;;;;;;10.98;97.06;99414.58;104237;1300;72288;-76
2022/11/04 02:11:00;;;;;;;7.10;4.20;;;;;;;10.97;97.73;99409.59;104511;1291;60873;-76
2022/11/04 02:13:29;;;;;;;5.50;4.00;;;;;;;10.99;97.23;99406.41;104310;1301;60446;-75
2022/11/04 02:16:34;;;;;;;7.80;4.00;;;;;;;10.99;97.27;99394.05;104439;1299;71669;-76
2022/11/04 02:19:37;;;;;;;7.50;3.80;;;;;;;11.00;97.42;99387.33;103337;1301;71769;-75
2022/11/04 02:22:25;;;;;;;6.50;3.80;;;;;;;11.01;97.32;99396.98;104092;1296;72057;-75
2022/11/04 02:25:26;;;;;;;6.90;4.30;;;;;;;11.00;97.64;99403.55;104125;1292;62806;-76
2022/11/04 02:28:17;;;;;;;7.00;4.00;;;;;;;10.99;98.16;99403.35;104550;1292;59948;-75
2022/11/04 02:30:58;;;;;;;7.40;3.80;;;;;;;11.00;98.47;99396.04;104079;1297;73611;-76
2022/11/04 02:33:34;;;;;;;5.70;3.70;;;;;;;10.99;99.13;99390.58;105130;1299;69915;-76
2022/11/04 02:36:06;;;;;;;6.40;3.60;;;;;;;11.01;98.80;99390.52;104782;1291;72790;-76
2022/11/04 02:38:36;;;;;;;6.30;3.90;;;;;;;11.02;98.89;99383.71;104803;1291;61770;-76
2022/11/04 02:41:39;;;;;;;5.00;3.50;;;;;;;11.02;98.91;99381.33;104703;1298;60492;-76
2022/11/04 02:44:40;;;;;;;6.80;3.70;;;;;;;11.04;98.84;99383.98;104618;1298;73741;-75
2022/11/04 02:47:15;;;;;;;7.10;3.40;;;;;;;11.04;99.03;99377.98;103931;1299;71141;-75
2022/11/04 02:50:02;;;;;;;5.80;3.70;;;;;;;11.05;98.84;99368.71;104312;1301;71152;-75
2022/11/04 02:52:45;;;;;;;6.20;3.60;;;;;;;11.04;99.05;99376.36;104472;1300;63393;-76
2022/11/04 02:55:23;;;;;;;5.30;4.00;;;;;;;11.04;99.12;99379.98;104429;1291;60507;-75
2022/11/04 02:57:54;;;;;;;6.00;3.70;;;;;;;11.05;99.09;99379.45;103986;1298;71758;-76
2022/11/04 03:00:21;;;;;;;6.10;3.50;;;;;;;11.06;99.26;99382.84;104107;1300;71008;-75
2022/11/04 03:03:17;;;;;;;5.40;3.40;;;;;;;11.07;99.41;99379.36;104632;1296;73738;-75
2022/11/04 03:05:47;;;;;;;5.70;3.70;;;;;;;11.08;99.41;99380.63;104101;1299;62102;-75
2022/11/04 03:08:24;;;;;;;5.30;3.30;;;;;;;11.09;99.52;99377.44;104176;1299;60375;-76
2022/11/04 03:10:56;;;;;;;4.90;3.30;;;;;;;11.08;99.60;99392.78;104527;1295;73362;-75
2022/11/04 03:13:43;;;;;;;5.50;3.10;;;;;;;11.08;99.65;99398.91;104225;1294;70987;-75
2022/11/04 03:16:16;;;;;;;4.60;3.00;;;;;;;11.07;99.24;99403.78;103668;1304;74807;-75
2022/11/04 03:18:55;;;;;;;5.60;2.70;;;;;;;11.08;98.97;99403.08;104380;1299;60914;-75
2022/11/04 03:21:25;;;;;;;2.50;2.20;;;;;;;11.10;98.54;99407.02;104788;1297;60521;-76
2022/11/04 03:23:53;;;;;;;3.70;2.50;;;;;;;11.10;98.29;99410.91;105016;1301;74861;-75
2022/11/04 03:26:28;;;;;;;4.30;2.40;;;;;;;11.10;97.64;99425.54;104673;1301;70665;-77
2022/11/04 03:29:23;;;;;;;3.20;1.60;;;;;;;11.13;96.29;99434.66;105097;1291;72898;-77
2022/11/04 03:32:05;;;;;;;3.00;1.40;;;;;;;11.15;95.05;99440.82;104621;1285;62485;-76
2022/11/04 03:34:32;;;;;;;2.10;1.30;;;;;;;11.16;93.65;99452.22;104093;1299;60693;-75
2022/11/04 03:36:58;;;;;;;2.20;1.20;;;;;;;11.18;92.79;99464.70;104617;1297;72435;-76
2022/11/04 03:39:25;;;;;;;2.20;1.20;;;;;;;11.18;92.01;99470.99;104663;1299;70212;-76
2022/11/04 03:41:55;;;;;;;2.40;1.10;;;;;;;11.17;91.84;99473.48;105025;1294;72692;-76
2022/11/04 03:44:23;;;;;;;1.80;1.10;;;;;;;11.15;91.07;99471.85;104563;1294;60701;-76
2022/11/04 03:46:52;;;;;;;2.00;1.10;;;;;;;11.12;90.67;99473.45;104872;1291;60290;-76
2022/11/04 03:49:23;;;;;;;1.50;0.90;;;;;;;11.09;90.18;99485.06;104211;1292;73513;-76
2022/11/04 03:51:51;;;;;;;1.90;0.80;;;;;;;11.04;89.47;99491.77;104237;1298;71296;-76
2022/11/04 03:54:18;;;;;;;1.50;0.80;;;;;;;10.99;88.68;99498.38;104117;1292;70613;-75
2022/11/04 03:57:07;;;;;;;1.50;0.80;;;;;;;10.95;88.50;99499.26;104317;1294;60504;-76
2022/11/04 03:59:46;;;;;;;2.30;0.90;;;;;;;10.90;88.46;99511.59;105172;1295;59279;-77
2022/11/04 04:02:24;;;;;;;1.80;0.90;;;;;;;10.87;88.18;99505.35;105728;1282;73662;-77
2022/11/04 04:05:02;;;;;;;1.80;0.90;;;;;;;10.84;87.99;99516.91;105180;1290;71376;-76
2022/11/04 04:07:38;;;;;;;2.50;0.80;;;;;;;10.84;87.72;99515.88;104899;1301;71753;-76
2022/11/04 04:10:40;;;;;;;1.90;0.80;;;;;;;10.84;87.72;99512.13;105345;1299;60998;-75
2022/11/04 04:13:20;;;;;;;2.00;0.90;;;;;;;10.81;87.71;99517.77;104239;1301;61208;-77
2022/11/04 04:16:01;;;;;;;2.10;1.10;;;;;;;10.78;87.83;99520.61;104181;1293;73686;-76
2022/11/04 04:18:58;;;;;;;1.90;1.00;;;;;;;10.76;88.24;99520.79;104005;1301;70143;-76
2022/11/04 04:21:30;;;;;;;1.40;0.90;;;;;;;10.73;88.44;99522.74;105176;1305;70716;-76
2022/11/04 04:29:35;;;;;;;2.80;1.90;;;;;;;10.64;87.72;99529.96;104262;1295;72340;-75
2022/11/04 04:32:04;;;;;;;2.10;1.60;;;;;;;10.63;87.52;99533.15;104234;1291;70008;-76
2022/11/04 04:34:32;;;;;;;3.10;2.20;;;;;;;10.61;87.24;99537.98;104293;1293;71534;-76
2022/11/04 04:37:23;;;;;;;3.00;2.10;;;;;;;10.60;87.29;99540.73;103957;1304;61894;-76
2022/11/04 04:45:35;;;;;;;2.70;2.10;;;;;;;10.56;87.72;99552.05;104174;1299;73415;-76
2022/11/04 04:48:02;;;;;;;2.80;2.30;;;;;;;10.54;87.67;99566.40;104336;1298;73911;-76
2022/11/04 04:50:36;;;;;;;3.40;2.10;;;;;;;10.53;87.72;99561.25;104072;1292;60484;-76
2022/11/04 04:53:03;;;;;;;3.00;2.60;;;;;;;10.53;87.69;99564.77;103911;1299;61952;-76
2022/11/04 04:55:33;;;;;;;3.60;2.20;;;;;;;10.52;87.75;99561.05;103988;1297;74122;-78
2022/11/04 04:58:07;;;;;;;3.80;2.70;;;;;;;10.50;87.58;99570.14;104400;1292;69335;-76
2022/11/04 05:00:34;;;;;;;2.90;2.60;;;;;;;10.49;87.51;99567.46;104221;1292;71287;-77
2022/11/04 05:03:00;;;;;;;3.20;2.70;;;;;;;10.48;87.54;99578.47;104641;1293;61860;-76
2022/11/04 05:05:27;;;;;;;3.80;3.20;;;;;;;10.45;87.05;99568.95;104131;1292;60429;-76
2022/11/04 05:07:53;;;;;;;4.30;2.90;;;;;;;10.43;87.01;99563.16;103768;1299;72441;-77
2022/11/04 05:10:20;;;;;;;4.10;3.40;;;;;;;10.42;86.69;99562.25;103860;1302;60425;-76
2022/11/04 05:15:31;;;;;;;4.80;3.30;;;;;;;10.38;86.64;99567.18;104363;1290;61658;-77
2022/11/04 05:18:02;;;;;;;3.90;3.50;;;;;;;10.36;86.35;99567.63;104710;1289;60397;-77
2022/11/04 05:20:29;;;;;;;5.50;3.30;;;;;;;10.34;86.09;99571.79;104923;1292;72717;-77
2022/11/04 05:22:55;;;;;;;3.90;3.40;;;;;;;10.33;85.91;99576.64;104652;1291;70172;-76
2022/11/04 05:25:22;;;;;;;5.00;3.80;;;;;;;10.31;85.79;99585.90;104216;1291;72776;-74
2022/11/04 05:27:49;;;;;;;4.50;3.60;;;;;;;10.30;85.80;99596.85;104446;1292;60649;-74
2022/11/04 05:30:15;;;;;;;3.80;3.40;;;;;;;10.28;85.62;99601.77;104237;1295;60488;-73
2022/11/04 05:32:42;;;;;;;4.20;3.70;;;;;;;10.28;85.10;99610.84;104115;1286;72324;-74
2022/11/04 05:35:08;;;;;;;3.60;3.30;;;;;;;10.25;84.97;99619.73;104606;1289;60383;-74
2022/11/04 05:37:35;;;;;;;4.60;3.50;;;;;;;10.22;85.15;99626.08;104203;1299;59270;-73
2022/11/04 05:40:01;;;;;;;4.00;3.60;;;;;;;10.19;85.02;99644.46;104989;1291;58544;-74
2022/11/04 05:42:29;;;;;;;4.00;3.50;;;;;;;10.18;84.84;99644.95;104450;1301;61673;-75
2022/11/04 05:44:56;;;;;;;4.10;3.70;;;;;;;10.16;84.80;99641.48;104278;1290;73699;-72
2022/11/04 05:47:22;;;;;;;4.80;3.50;;;;;;;10.13;84.74;99631.21;104412;1297;59461;-75
2022/11/04 05:49:49;;;;;;;5.00;4.10;;;;;;;10.12;84.67;99622.75;103877;1299;60471;-73
2022/11/04 05:52:15;;;;;;;4.80;4.30;;;;;;;10.10;84.77;99638.10;104941;1297;60482;-73
2022/11/04 05:54:41;;;;;;;4.60;3.80;;;;;;;10.06;84.86;99656.92;104151;1300;59293;-73
2022/11/04 05:57:09;;;;;;;4.90;4.40;;;;;;;10.04;84.86;99660.02;104616;1300;60499;-74
2022/11/04 05:59:35;;;;;;;5.50;4.20;;;;;;;10.01;85.07;99657.97;104121;1295;70857;-74
2022/11/04 06:02:02;;;;;;;5.40;4.50;;;;;;;10.01;85.07;99652.50;104002;1295;60476;-74
2022/11/04 06:04:29;;;;;;;6.20;4.50;;;;;;;9.99;84.95;99658.88;104184;1292;62032;-73
2022/11/04 06:06:55;;;;;;;5.10;4.40;;;;;;;9.97;85.11;99658.96;104029;1299;60413;-74
2022/11/04 06:09:37;;;;;;;4.90;4.00;;;;;;;9.94;85.07;99660.77;104393;1299;60546;-74
2022/11/04 06:12:15;;;;;;;4.90;4.40;;;;;;;9.92;85.08;99662.77;105080;1293;71264;-74
2022/11/04 06:14:42;;;;;;;5.40;4.20;;;;;;;9.90;85.16;99666.27;104886;1291;71380;-74
2022/11/04 06:17:14;;;;;;;5.00;4.20;;;;;;;9.87;85.34;99669.06;104067;1295;61458;-73
2022/11/04 06:19:41;;;;;;;6.00;4.20;;;;;;;9.84;85.70;99671.84;104155;1291;60568;-74
2022/11/04 06:22:10;;;;;;;6.70;5.20;;;;;;;9.80;86.07;99676.95;104248;1299;73723;-73
2022/11/04 06:24:36;;;;;;;6.20;4.40;;;;;;;9.78;86.19;99677.45;104366;1295;69546;-74
2022/11/04 06:27:03;;;;;;;5.60;4.80;;;;;;;9.76;86.62;99681.64;103847;1295;59763;-73
2022/11/04 06:29:30;;;;;;;4.70;4.20;;;;;;;9.74;87.00;99679.41;104646;1293;60457;-73
2022/11/04 06:31:57;;;;;;;4.40;4.00;;;;;;;9.73;87.13;99686.05;104572;1299;60514;-73
2022/11/04 06:34:24;;;;;;;4.50;4.00;;;;;;;9.71;87.51;99693.23;104759;1297;74725;-73
2022/11/04 06:36:50;;;;;;;5.70;4.30;;;;;;;9.71;87.39;99702.94;103994;1299;71349;-72
2022/11/04 06:39:17;;;;;;;5.90;4.30;;;;;;;9.70;87.57;99704.89;104302;1292;72504;-73
2022/11/04 06:41:43;;;;;;;5.40;4.10;;;;;;;9.71;87.66;99708.23;104143;1290;61218;-72
2022/11/04 06:44:15;;;;;;;4.60;3.90;;;;;;;9.71;87.75;99713.70;103160;1294;60788;-73
2022/11/04 06:46:43;;;;;;;4.50;3.90;;;;;;;9.72;87.77;99719.56;103383;1295;59286;-72
2022/11/04 06:49:20;;;;;;;4.90;3.80;;;;;;;9.73;87.92;99736.92;104600;1293;70522;-72
2022/11/04 06:51:48;;;;;;;5.00;4.20;;;;;;;9.74;88.02;99742.95;104405;1295;70422;-72
2022/11/04 06:54:15;;;;;;;4.80;3.80;;;;;;;9.78;87.74;99727.23;103246;1295;61906;-73
2022/11/04 06:56:43;;;;;;;4.60;4.00;;;;;;;9.83;87.73;99720.48;103387;1298;60486;-73
2022/11/04 06:59:19;;;;;;;5.30;3.90;;;;;;;9.86;87.49;99727.66;103998;1294;73256;-73
2022/11/04 07:01:48;;;;;;;3.90;3.50;;;;;;;9.90;87.49;99741.45;103419;1289;69599;-72
2022/11/04 07:04:14;;;;;;;6.00;4.10;;;;;;;9.95;87.20;99743.52;103382;1301;72687;-73
2022/11/04 07:06:42;;;;;;;5.70;4.00;;;;;;;9.97;86.89;99741.58;105221;1291;60555;-73
2022/11/04 07:09:12;;;;;;;5.20;3.80;;;;;;;10.04;86.63;99744.31;104821;1291;59138;-73
2022/11/04 07:11:40;;;;;;;4.90;3.80;;;;;;;10.07;86.20;99741.59;103747;1294;74419;-74
2022/11/04 07:14:07;;;;;;;4.90;3.40;;;;;;;10.11;85.79;99740.20;103456;1302;71003;-74
2022/11/04 07:16:34;;;;;;;4.50;4.00;;;;;;;10.16;85.79;99736.59;103370;1297;73701;-73
2022/11/04 07:19:01;;;;;;;4.40;3.90;;;;;;;10.21;85.80;99733.44;103079;1303;61693;-74
2022/11/04 07:21:28;;;;;;;5.00;3.50;;;;;;;10.23;85.45;99733.00;103685;1294;61856;-74
2022/11/04 07:23:55;;;;;;;6.10;3.90;;;;;;;10.27;85.38;99735.34;104412;1288;72486;-73
2022/11/04 07:26:21;;;;;;;5.90;3.90;;;;;;;10.30;84.98;99742.09;104700;1290;69879;-74
2022/11/04 07:28:48;;;;;;;5.80;4.10;;;;;;;10.31;84.64;99735.59;103690;1291;71526;-72
2022/11/04 07:31:14;;;;;;;6.40;4.50;;;;;;;10.35;84.45;99730.98;103430;1292;60714;-72
2022/11/04 07:33:41;;;;;;;6.30;5.10;;;;;;;10.39;84.18;99737.72;103137;1294;62634;-72
2022/11/04 07:36:11;;;;;;;7.00;4.80;;;;;;;10.44;83.41;99744.76;103686;1299;72388;-73
2022/11/04 07:38:38;;;;;;;7.80;4.80;;;;;;;10.50;83.02;99745.02;103988;1299;70614;-74
2022/11/04 07:41:05;;;;;;;5.50;3.90;;;;;;;10.55;82.43;99751.24;104345;1291;74099;-73
2022/11/04 07:43:31;;;;;;;9.20;4.80;;;;;;;10.58;81.98;99750.27;104350;1294;61792;-73
2022/11/04 07:46:17;;;;;;;5.70;4.80;;;;;;;10.59;82.08;99752.05;104322;1297;60482;-73
2022/11/04 07:48:44;;;;;;;5.50;4.30;;;;;;;10.63;82.27;99755.40;104421;1291;71619;-73
2022/11/04 07:51:15;;;;;;;5.40;4.40;;;;;;;10.63;82.11;99761.40;103271;1298;69916;-73
2022/11/04 07:53:42;;;;;;;5.70;4.10;;;;;;;10.66;82.21;99779.02;103080;1294;72623;-73
2022/11/04 07:56:11;;;;;;;7.10;4.30;;;;;;;10.66;82.16;99784.38;103422;1299;62314;-73
2022/11/04 07:58:37;;;;;;;7.70;5.00;;;;;;;10.67;82.08;99781.92;103849;1291;60765;-73
2022/11/04 08:01:07;;;;;;;6.10;4.50;;;;;;;10.68;82.16;99779.69;104203;1301;72740;-73
2022/11/04 08:03:35;;;;;;;7.50;4.50;;;;;;;10.71;81.87;99782.70;104053;1295;69479;-73
2022/11/04 08:06:03;;;;;;;5.80;4.10;;;;;;;10.74;81.91;99783.23;103974;1299;71209;-73
2022/11/04 08:08:30;;;;;;;5.80;4.40;;;;;;;10.78;81.83;99789.40;104213;1292;61913;-74
2022/11/04 08:11:06;;;;;;;7.20;4.90;;;;;;;10.84;81.73;99785.71;103721;1299;59763;-72
2022/11/04 08:13:39;;;;;;;6.90;4.80;;;;;;;10.91;81.52;99783.42;103298;1295;72465;-74
2022/11/04 08:16:11;;;;;;;7.70;4.40;;;;;;;10.97;80.74;99788.44;103493;1294;72399;-73
2022/11/04 08:18:39;;;;;;;6.00;4.30;;;;;;;11.04;80.45;99794.56;103842;1284;75129;-74
2022/11/04 08:21:06;;;;;;;6.30;4.20;;;;;;;11.11;80.37;99798.45;104358;1292;60470;-74
2022/11/04 08:23:33;;;;;;;7.70;4.30;;;;;;;11.19;80.25;99802.23;103566;1297;60978;-74
2022/11/04 08:26:11;;;;;;;6.20;4.30;;;;;;;11.20;79.86;99811.67;103398;1297;73166;-73
2022/11/04 08:28:39;;;;;;;6.80;3.90;;;;;;;11.22;79.73;99813.55;104323;1300;69595;-72
2022/11/04 08:31:10;;;;;;;6.10;4.10;;;;;;;11.21;79.46;99819.21;103321;1299;71808;-72
2022/11/04 08:33:37;;;;;;;7.20;4.50;;;;;;;11.18;79.27;99823.39;103324;1300;62426;-74
2022/11/04 08:36:26;;;;;;;5.60;3.80;;;;;;;11.14;79.11;99824.88;104154;1301;60449;-75
2022/11/04 08:38:53;;;;;;;8.30;4.20;;;;;;;11.09;79.11;99833.06;103971;1299;72461;-72
2022/11/04 08:41:24;;;;;;;6.10;3.60;;;;;;;11.06;79.08;99833.31;103812;1301;72430;-73
2022/11/04 08:43:51;;;;;;;7.00;3.70;;;;;;;11.05;78.93;99830.13;103336;1299;71135;-73
2022/11/04 08:46:18;;;;;;;6.00;4.20;;;;;;;11.05;78.96;99827.30;103999;1291;61438;-73
2022/11/04 08:48:45;;;;;;;5.90;3.90;;;;;;;11.08;79.12;99824.79;104566;1295;59507;-73
2022/11/04 08:51:15;;;;;;;5.30;3.50;;;;;;;11.13;79.09;99821.45;103568;1291;74054;-72
2022/11/04 08:53:42;;;;;;;5.40;3.50;;;;;;;11.19;79.03;99818.35;103931;1298;73189;-73
2022/11/04 08:56:21;;;;;;;5.80;3.40;;;;;;;11.28;78.89;99820.45;103920;1301;71505;-72
2022/11/04 08:58:48;;;;;;;6.80;3.60;;;;;;;11.35;78.47;99824.03;103716;1298;61020;-73
2022/11/04 09:01:15;;;;;;;5.70;3.70;;;;;;;11.38;78.28;99828.04;104237;1298;60114;-73
2022/11/04 09:03:42;;;;;;;6.80;3.60;;;;;;;11.45;78.25;99838.34;103481;1295;72658;-73
2022/11/04 09:06:12;;;;;;;6.90;3.50;;;;;;;11.50;78.07;99842.48;104217;1294;60448;-73
2022/11/04 09:08:39;;;;;;;6.60;2.80;;;;;;;11.52;77.82;99841.80;103687;1302;70739;-73
2022/11/04 09:11:09;;;;;;;5.90;3.20;;;;;;;11.51;77.58;99845.31;103006;1294;60940;-73
2022/11/04 09:13:36;;;;;;;7.30;4.00;;;;;;;11.51;77.79;99845.99;104583;1295;60800;-73
2022/11/04 09:16:07;;;;;;;5.90;3.60;;;;;;;11.51;77.72;99845.31;103478;1301;74020;-73
2022/11/04 09:18:33;;;;;;;6.10;4.00;;;;;;;11.51;77.77;99846.13;103905;1291;70728;-73
2022/11/04 09:21:01;;;;;;;6.50;3.10;;;;;;;11.53;77.88;99843.46;104812;1283;60548;-72
2022/11/04 09:23:27;;;;;;;5.50;3.40;;;;;;;11.54;77.88;99842.29;103876;1302;60591;-73
2022/11/04 09:25:56;;;;;;;7.20;3.80;;;;;;;11.56;78.07;99830.44;103676;1297;60511;-73
2022/11/04 09:28:22;;;;;;;6.80;3.30;;;;;;;11.62;77.96;99829.17;103440;1292;72640;-73
2022/11/04 09:30:49;;;;;;;5.70;3.60;;;;;;;11.67;78.11;99827.95;104153;1292;69010;-73
2022/11/04 09:33:16;;;;;;;6.00;3.50;;;;;;;11.75;78.17;99832.16;103366;1285;70939;-73
2022/11/04 09:35:43;;;;;;;6.60;3.30;;;;;;;11.78;77.69;99828.20;103333;1297;61233;-73
2022/11/04 09:38:09;;;;;;;5.60;3.70;;;;;;;11.80;77.48;99826.78;103400;1291;60849;-72
2022/11/04 09:40:38;;;;;;;5.60;3.30;;;;;;;11.87;77.47;99827.23;104113;1298;60515;-71
2022/11/04 09:43:56;;;;;;;5.70;3.10;;;;;;;11.89;76.97;99831.67;103709;1275;71097;-73
2022/11/04 09:46:23;;;;;;;5.40;3.30;;;;;;;11.89;77.38;99832.95;103916;1291;72104;-74
2022/11/04 09:48:54;;;;;;;6.60;3.00;;;;;;;11.87;77.10;99829.80;103853;1294;60536;-73
2022/11/04 09:51:24;;;;;;;6.00;2.90;;;;;;;11.85;77.58;99829.63;103448;1299;60341;-73
2022/11/04 09:54:33;;;;;;;5.40;3.50;;;;;;;11.83;77.22;99828.49;103548;1291;76980;-73
2022/11/04 09:57:01;;;;;;;5.90;3.20;;;;;;;11.81;76.89;99830.01;104945;1292;70938;-73
2022/11/04 09:59:31;;;;;;;5.30;3.20;;;;;;;11.79;77.08;99827.89;103047;1297;71872;-74
2022/11/04 10:02:11;;;;;;;6.30;3.30;;;;;;;11.78;76.69;99827.15;103389;1300;61044;-72
2022/11/04 10:05:02;;;;;;;4.90;3.10;;;;;;;11.78;76.73;99824.36;103718;1292;62370;-73
2022/11/04 10:08:00;;;;;;;5.80;3.10;;;;;;;11.86;76.86;99817.14;103716;1301;74058;-72
2022/11/04 10:10:55;;;;;;;5.60;3.20;;;;;;;12.01;76.82;99818.38;103861;1292;71104;-72
2022/11/04 10:13:28;;;;;;;6.40;3.40;;;;;;;12.10;76.07;99815.63;104115;1292;72018;-72
2022/11/04 10:16:22;;;;;;;4.50;2.70;;;;;;;12.08;73.92;99816.90;104827;1298;60374;-72
2022/11/04 10:19:21;;;;;;;5.00;2.70;;;;;;;12.07;73.35;99826.20;104051;1291;59516;-72
2022/11/04 10:22:27;;;;;;;5.00;2.70;;;;;;;12.05;73.67;99831.02;104683;1291;73688;-72
2022/11/04 10:25:07;;;;;;;3.90;2.60;;;;;;;12.09;72.74;99825.41;105794;1288;70027;-73
2022/11/04 10:27:37;;;;;;;5.20;2.60;;;;;;;12.15;72.44;99831.78;103772;1295;72049;-72
2022/11/04 10:30:14;;;;;;;5.00;2.50;;;;;;;12.15;71.85;99837.02;104122;1284;61784;-73
2022/11/04 10:32:47;;;;;;;5.90;2.40;;;;;;;12.20;72.01;99846.79;104510;1294;60671;-74
2022/11/04 10:35:14;;;;;;;4.50;2.60;;;;;;;12.27;71.93;99861.63;104135;1291;72890;-73
2022/11/04 10:37:41;;;;;;;3.80;2.30;;;;;;;12.35;71.94;99874.07;103217;1297;69897;-73
2022/11/04 10:40:22;;;;;;;6.10;2.70;;;;;;;12.41;72.62;99878.59;103609;1292;70608;-73
2022/11/04 10:42:50;;;;;;;4.40;2.10;;;;;;;12.45;72.17;99878.75;104400;1285;62008;-74
2022/11/04 10:45:22;;;;;;;5.10;2.20;;;;;;;12.34;70.17;99883.44;103289;1294;60573;-73
2022/11/04 10:47:57;;;;;;;4.50;2.10;;;;;;;12.37;70.13;99884.41;102951;1301;72436;-72
2022/11/04 10:50:33;;;;;;;6.90;2.40;;;;;;;12.30;70.49;99879.84;103987;1294;69814;-73
2022/11/04 10:53:18;;;;;;;3.70;2.30;;;;;;;12.29;70.95;99878.98;103827;1298;71921;-73
2022/11/04 10:56:13;;;;;;;4.40;2.20;;;;;;;12.31;70.75;99882.29;103658;1286;62084;-74
2022/11/04 10:58:46;;;;;;;3.20;1.80;;;;;;;12.40;70.52;99886.00;103522;1298;60352;-74
2022/11/04 11:01:31;;;;;;;4.30;2.30;;;;;;;12.40;70.91;99886.98;104328;1294;72613;-72
2022/11/04 11:03:59;;;;;;;5.20;2.40;;;;;;;12.44;70.44;99887.60;103347;1301;69498;-73
2022/11/04 11:06:31;;;;;;;5.20;2.20;;;;;;;12.53;69.81;99890.81;102741;1301;258487;-73
2022/11/04 11:09:14;;;;;;;4.20;2.10;;;;;;;12.59;68.85;99888.73;104845;1299;64921;-74
2022/11/04 11:11:49;;;;;;;5.30;2.10;;;;;;;12.68;68.82;99877.55;104196;1299;60118;-73
2022/11/04 11:14:31;;;;;;;4.80;2.10;;;;;;;12.95;68.82;99878.63;102855;1299;73556;-74
2022/11/04 11:17:46;;;;;;;4.00;1.80;;;;;;;13.17;67.26;99876.16;103061;1293;70889;-74
2022/11/04 11:20:14;;;;;;;3.90;1.90;;;;;;;13.37;65.71;99874.81;104277;1291;71150;-73
2022/11/04 11:22:45;;;;;;;4.60;1.70;;;;;;;13.40;65.51;99874.75;104004;1291;62176;-74
2022/11/04 11:25:21;;;;;;;4.30;1.80;;;;;;;13.46;66.24;99869.56;103008;1301;61755;-73
2022/11/04 11:27:49;;;;;;;4.20;1.90;;;;;;;13.38;65.26;99877.39;103531;1299;74697;-75
2022/11/04 11:30:27;;;;;;;4.80;1.80;;;;;;;13.24;65.37;99879.50;104606;1291;69260;-74
2022/11/04 11:33:18;;;;;;;6.30;2.30;;;;;;;13.22;66.61;99875.15;103883;1298;73443;-74
2022/11/04 11:35:57;;;;;;;5.50;2.20;;;;;;;13.22;66.16;99877.27;103274;1298;60924;-75
2022/11/04 11:38:29;;;;;;;4.80;2.00;;;;;;;13.23;66.86;99879.45;104976;1291;60185;-74
2022/11/04 11:41:12;;;;;;;5.60;2.00;;;;;;;13.20;67.04;99875.25;104366;1291;72513;-74
2022/11/04 11:43:55;;;;;;;6.00;1.80;;;;;;;13.22;67.45;99877.16;103191;1297;74617;-73
2022/11/04 11:46:24;;;;;;;4.00;2.10;;;;;;;13.18;67.41;99879.91;103899;1292;72096;-76
2022/11/04 11:49:01;;;;;;;4.10;1.90;;;;;;;13.21;67.92;99880.82;105062;1292;62154;-73
2022/11/04 11:51:32;;;;;;;3.40;2.00;;;;;;;13.20;67.43;99887.29;104022;1291;60530;-74
2022/11/04 11:54:02;;;;;;;4.60;1.80;;;;;;;13.19;66.75;99887.63;103289;1291;72675;-74
2022/11/04 11:56:42;;;;;;;6.40;1.90;;;;;;;13.24;66.78;99885.52;104025;1291;68890;-74
2022/11/04 11:59:47;;;;;;;6.40;1.60;;;;;;;13.32;67.02;99883.20;104916;1285;72841;-74
2022/11/04 12:02:40;;;;;;;4.30;1.50;;;;;;;13.40;65.62;99886.85;104386;1294;62971;-74
2022/11/04 12:05:10;;;;;;;3.80;1.30;;;;;;;13.61;65.07;99878.60;104056;1293;60342;-74
2022/11/04 12:08:21;;;;;;;3.50;1.40;;;;;;;13.67;64.05;99877.22;104569;1291;75068;-74
2022/11/04 12:11:25;;;;;;;5.60;1.90;;;;;;;13.68;64.27;99876.02;104273;1291;71294;-74
2022/11/04 12:13:55;;;;;;;3.90;1.50;;;;;;;13.68;63.84;99878.83;104080;1302;73155;-74
2022/11/04 12:16:37;;;;;;;5.00;1.60;;;;;;;13.64;64.29;99875.92;104359;1300;60845;-74
2022/11/04 12:19:30;;;;;;;5.50;1.70;;;;;;;13.63;64.88;99879.58;104368;1299;60605;-73
2022/11/04 12:22:05;;;;;;;5.30;1.90;;;;;;;13.61;65.07;99878.52;103682;1302;73722;-73
2022/11/04 12:24:57;;;;;;;3.70;1.70;;;;;;;13.81;64.38;99880.27;104733;1287;70590;-73
2022/11/04 12:28:11;;;;;;;4.00;1.60;;;;;;;14.50;63.82;99874.35;104759;1301;74283;-72